Los Angeles, California
Traffic Map
Current Weather Conditions
Los Angeles, California
Clear
Clear
66°
Feels Like: 66°
Wind Chill: 66° Ceiling: Unl
Heat Index: 66° Visibility: 9mi
Dew Point: 61° Wind: 0mph
Humidity: 84% Direction: ° ()
Pressure: 29.86in Gusts: 0mph
Raw Report DataKCQT 291147Z AUTO 00000KT 9SM CLR 19/16 A2986 RMK AO2 SLP109 T01890161 10228 20189 55006
Traffic Incident Summary
Active as of:
Severity:
Category:
InformationThere was an issue retrieving the traffic information for this location. Please try a different location or try again shortly.
Advertisements
Track Severe Weather on mobile